createdAt,value
2018-04-08T00:01:58.450Z,59.19
2018-04-08T00:04:24.806Z,55.38
2018-04-08T00:06:51.205Z,54.97
2018-04-08T00:09:17.597Z,54.80
2018-04-08T00:11:43.979Z,54.89
2018-04-08T00:14:10.439Z,55.40
2018-04-08T00:16:36.846Z,55.60
2018-04-08T00:19:03.189Z,56.92
2018-04-08T00:21:29.689Z,56.08
2018-04-08T00:23:56.097Z,55.70
2018-04-08T00:26:22.577Z,56.10
2018-04-08T00:28:48.973Z,56.08
2018-04-08T00:31:15.322Z,56.23
2018-04-08T00:33:41.729Z,56.23
2018-04-08T00:36:08.106Z,56.83
2018-04-08T00:38:34.438Z,56.21
2018-04-08T00:41:00.858Z,56.62
2018-04-08T00:43:27.228Z,56.63
2018-04-08T00:45:53.638Z,57.43
2018-04-08T00:48:20.030Z,57.01
2018-04-08T00:50:46.403Z,57.62
2018-04-08T00:53:12.833Z,56.88
2018-04-08T00:55:39.249Z,56.94
2018-04-08T00:58:05.473Z,56.64
2018-04-08T01:00:31.725Z,56.27
2018-04-08T01:02:58.035Z,55.87
2018-04-08T01:05:24.334Z,56.26
2018-04-08T01:07:51.710Z,55.96
2018-04-08T01:10:17.993Z,56.20
2018-04-08T01:12:44.209Z,55.84
2018-04-08T01:15:10.425Z,56.23
2018-04-08T01:17:36.766Z,56.91
2018-04-08T01:20:03.250Z,56.13
2018-04-08T01:22:29.597Z,55.83
2018-04-08T01:24:56.059Z,56.36
2018-04-08T01:27:22.471Z,55.68
2018-04-08T01:29:48.824Z,55.54
2018-04-08T01:32:15.225Z,55.60
2018-04-08T01:34:41.581Z,55.43
2018-04-08T01:37:08.030Z,55.14
2018-04-08T01:39:34.454Z,55.16
2018-04-08T01:42:00.931Z,55.38
2018-04-08T01:44:27.321Z,55.92
2018-04-08T01:46:53.719Z,56.11
2018-04-08T01:49:20.235Z,56.47
2018-04-08T01:51:46.577Z,56.64
2018-04-08T01:54:12.926Z,56.53
2018-04-08T01:56:39.364Z,57.71
2018-04-08T01:59:05.746Z,56.78
2018-04-08T02:01:32.131Z,56.65
2018-04-08T02:03:58.665Z,57.18
2018-04-08T02:06:25.030Z,56.87
2018-04-08T02:08:51.373Z,56.59
2018-04-08T02:11:17.861Z,56.74
2018-04-08T02:13:44.249Z,56.15
2018-04-08T02:16:10.578Z,56.24
2018-04-08T02:18:36.942Z,56.51
2018-04-08T02:21:03.286Z,56.29
2018-04-08T02:23:29.793Z,55.78
2018-04-08T02:25:56.133Z,54.88
2018-04-08T02:28:22.485Z,55.26
2018-04-08T02:30:48.873Z,55.00
2018-04-08T02:33:15.234Z,55.05
2018-04-08T02:35:41.625Z,54.55
2018-04-08T02:38:08.019Z,53.81
2018-04-08T02:40:34.370Z,54.67
2018-04-08T02:43:00.902Z,56.99
2018-04-08T02:45:27.246Z,52.70
2018-04-08T02:47:53.609Z,52.15
2018-04-08T02:50:20.024Z,51.64
2018-04-08T02:52:46.434Z,51.41
2018-04-08T02:55:12.825Z,52.45
2018-04-08T02:57:39.319Z,55.22
2018-04-08T03:00:05.752Z,52.38
2018-04-08T03:02:32.146Z,52.86
2018-04-08T03:04:58.598Z,54.52
2018-04-08T03:07:24.989Z,54.34
2018-04-08T03:09:51.355Z,56.37
2018-04-08T03:12:17.838Z,54.00
2018-04-08T03:14:44.285Z,53.03
2018-04-08T03:17:10.661Z,55.20
2018-04-08T03:19:37.154Z,55.32
2018-04-08T03:22:03.837Z,53.74
2018-04-08T03:24:30.217Z,55.58
2018-04-08T03:26:56.640Z,54.16
2018-04-08T03:29:23.009Z,54.53
2018-04-08T03:31:49.434Z,55.09
2018-04-08T03:34:15.810Z,55.71
2018-04-08T03:36:42.277Z,56.77
2018-04-08T03:39:08.669Z,57.98
2018-04-08T03:41:35.118Z,56.98
2018-04-08T03:44:01.498Z,61.61
2018-04-08T03:46:27.886Z,59.41
2018-04-08T03:48:54.301Z,56.65
2018-04-08T03:51:20.677Z,58.13
2018-04-08T03:53:47.134Z,62.61
2018-04-08T03:56:13.601Z,60.41
2018-04-08T03:58:42.001Z,57.28
2018-04-08T04:01:08.455Z,59.50
2018-04-08T04:03:34.926Z,57.24
2018-04-08T04:06:01.342Z,56.84
2018-04-08T04:08:27.734Z,56.53
2018-04-08T04:10:54.194Z,56.82
2018-04-08T04:13:20.638Z,58.04
2018-04-08T04:15:47.061Z,59.25
2018-04-08T04:18:25.750Z,57.27
2018-04-08T04:21:04.330Z,58.53
2018-04-08T04:23:42.920Z,58.12
2018-04-08T04:26:21.406Z,59.00
2018-04-08T04:28:47.822Z,61.58
2018-04-08T04:31:14.293Z,60.60
2018-04-08T04:33:40.695Z,59.90
2018-04-08T04:36:07.074Z,60.34
2018-04-08T04:38:33.457Z,59.22
2018-04-08T04:40:59.838Z,59.41
2018-04-08T04:43:26.273Z,61.99
2018-04-08T04:45:52.709Z,60.51
2018-04-08T04:48:19.081Z,60.92
2018-04-08T04:50:45.452Z,59.63
2018-04-08T04:53:11.869Z,59.68
2018-04-08T04:55:38.321Z,61.70
2018-04-08T04:58:04.781Z,60.23
2018-04-08T05:00:31.222Z,61.05
2018-04-08T05:02:57.657Z,61.49
2018-04-08T05:05:24.033Z,63.20
2018-04-08T05:07:50.411Z,59.77
2018-04-08T05:10:16.833Z,60.57
2018-04-08T05:12:43.269Z,62.30
2018-04-08T05:15:09.695Z,59.11
2018-04-08T05:17:36.097Z,60.86
2018-04-08T05:20:02.493Z,58.48
2018-04-08T05:22:28.926Z,62.78
2018-04-08T05:24:55.318Z,58.23
2018-04-08T05:27:21.749Z,60.05
2018-04-08T05:29:48.138Z,58.04
2018-04-08T05:32:14.554Z,57.32
2018-04-08T05:34:40.986Z,60.81
2018-04-08T05:37:07.365Z,55.70
2018-04-08T05:39:33.753Z,58.83
2018-04-08T05:42:00.102Z,59.98
2018-04-08T05:44:26.543Z,53.91
2018-04-08T05:46:53.948Z,55.49
2018-04-08T05:49:21.338Z,54.54
2018-04-08T05:51:48.061Z,53.16
2018-04-08T05:54:14.455Z,55.15
2018-04-08T05:56:40.981Z,57.72
2018-04-08T05:59:07.410Z,55.10
2018-04-08T06:01:33.839Z,52.30
2018-04-08T06:04:00.197Z,51.10
2018-04-08T06:06:26.563Z,50.25
2018-04-08T06:08:52.924Z,50.54
2018-04-08T06:11:19.274Z,50.23
2018-04-08T06:13:45.662Z,54.02
2018-04-08T06:16:12.067Z,47.02
2018-04-08T06:18:38.502Z,49.98
2018-04-08T06:21:04.885Z,47.76
2018-04-08T06:23:31.288Z,45.94
2018-04-08T06:25:57.726Z,45.63
2018-04-08T06:28:24.206Z,51.71
2018-04-08T06:30:50.614Z,48.18
2018-04-08T06:33:16.981Z,47.05
2018-04-08T06:35:43.734Z,43.84
2018-04-08T06:38:10.369Z,47.86
2018-04-08T06:40:36.762Z,44.60
2018-04-08T06:43:03.225Z,47.96
2018-04-08T06:45:29.649Z,44.87
2018-04-08T06:47:56.064Z,43.17
2018-04-08T06:50:22.450Z,44.78
2018-04-08T06:52:48.822Z,44.20
2018-04-08T06:55:15.173Z,41.93
2018-04-08T06:57:41.545Z,48.77
2018-04-08T07:00:08.148Z,46.70
2018-04-08T07:02:34.555Z,46.82
2018-04-08T07:05:00.986Z,46.24
2018-04-08T07:07:27.329Z,40.77
2018-04-08T07:09:53.726Z,39.36
2018-04-08T07:12:20.143Z,40.03
2018-04-08T07:14:46.558Z,38.59
2018-04-08T07:17:12.914Z,38.30
2018-04-08T07:19:39.282Z,38.52
2018-04-08T07:22:05.695Z,37.80
2018-04-08T07:24:32.117Z,41.48
2018-04-08T07:26:58.458Z,45.50
2018-04-08T07:29:24.862Z,38.94
2018-04-08T07:31:51.425Z,38.14
2018-04-08T07:34:17.800Z,40.62
2018-04-08T07:36:44.210Z,39.48
2018-04-08T07:39:10.569Z,37.34
2018-04-08T07:41:36.973Z,38.41
2018-04-08T07:44:03.353Z,40.97
2018-04-08T07:46:29.697Z,42.55
2018-04-08T07:48:56.094Z,47.47
2018-04-08T07:51:22.445Z,38.33
2018-04-08T07:53:49.141Z,36.67
2018-04-08T07:56:15.509Z,36.76
2018-04-08T07:58:42.097Z,37.27
2018-04-08T08:01:08.509Z,37.23
2018-04-08T08:03:34.918Z,36.41
2018-04-08T08:06:01.989Z,42.46
2018-04-08T08:08:28.389Z,36.68
2018-04-08T08:10:54.795Z,36.55
2018-04-08T08:13:21.157Z,43.71
2018-04-08T08:15:47.554Z,38.92
2018-04-08T08:18:13.960Z,43.27
2018-04-08T08:20:40.501Z,38.80
2018-04-08T08:23:06.914Z,39.16
2018-04-08T08:25:33.342Z,41.58
2018-04-08T08:27:59.721Z,46.28
2018-04-08T08:30:26.088Z,44.56
2018-04-08T08:32:52.469Z,38.44
2018-04-08T08:35:18.850Z,39.86
2018-04-08T08:37:45.205Z,38.55
2018-04-08T08:40:11.554Z,42.32
2018-04-08T08:42:37.962Z,37.86
2018-04-08T08:45:04.341Z,46.74
2018-04-08T08:47:30.741Z,39.42
2018-04-08T08:49:57.109Z,39.90
2018-04-08T08:52:23.565Z,45.19
2018-04-08T08:54:49.956Z,39.42
2018-04-08T08:57:16.306Z,44.92
2018-04-08T08:59:42.689Z,45.42
2018-04-08T09:02:09.073Z,39.09
2018-04-08T09:04:35.501Z,44.89
2018-04-08T09:07:01.897Z,38.99
2018-04-08T09:09:28.253Z,42.69
2018-04-08T09:11:54.625Z,45.68
2018-04-08T09:14:20.994Z,39.90
2018-04-08T09:16:47.389Z,41.68
2018-04-08T09:19:18.815Z,39.97
2018-04-08T09:35:03.672Z,43.34
2018-04-08T09:37:30.046Z,38.80
2018-04-08T09:39:56.385Z,45.32
2018-04-08T09:42:22.772Z,46.88
2018-04-08T09:44:49.302Z,42.84
2018-04-08T09:47:15.871Z,38.34
2018-04-08T09:49:42.396Z,38.50
2018-04-08T09:52:08.745Z,38.83
2018-04-08T09:54:35.344Z,44.87
2018-04-08T09:57:01.779Z,45.26
2018-04-08T09:59:28.181Z,45.46
2018-04-08T10:15:13.102Z,40.23
2018-04-08T10:17:39.463Z,37.95
2018-04-08T10:20:06.278Z,37.00
2018-04-08T10:22:32.799Z,41.89
2018-04-08T10:24:59.213Z,36.94
2018-04-08T10:27:25.777Z,38.94
2018-04-08T10:29:52.377Z,43.58
2018-04-08T10:32:18.744Z,46.37
2018-04-08T10:34:45.102Z,38.20
2018-04-08T10:37:11.455Z,33.91
2018-04-08T10:39:37.817Z,42.27
2018-04-08T10:42:04.226Z,35.50
2018-04-08T10:44:30.653Z,34.54
2018-04-08T10:46:57.057Z,37.41
2018-04-08T10:49:23.415Z,34.90
2018-04-08T10:51:49.881Z,33.83
2018-04-08T10:54:16.240Z,42.79
2018-04-08T10:56:42.665Z,32.28
2018-04-08T10:59:09.010Z,38.41
2018-04-08T11:01:35.373Z,43.17
2018-04-08T11:04:01.733Z,36.84
2018-04-08T11:06:28.105Z,30.14
2018-04-08T11:08:54.494Z,30.05
2018-04-08T11:11:20.862Z,34.80
2018-04-08T11:13:47.216Z,31.65
2018-04-08T11:16:13.638Z,41.60
2018-04-08T11:18:40.005Z,41.23
2018-04-08T11:21:06.357Z,36.46
2018-04-08T11:23:32.721Z,30.14
2018-04-08T11:25:59.137Z,35.11
2018-04-08T11:28:25.514Z,45.52
2018-04-08T11:30:51.883Z,28.56
2018-04-08T11:33:18.237Z,37.85
2018-04-08T11:35:44.690Z,34.25
2018-04-08T11:38:11.552Z,35.02
2018-04-08T11:40:37.929Z,34.20
2018-04-08T11:43:04.379Z,33.20
2018-04-08T11:45:30.782Z,40.97
2018-04-08T11:47:57.143Z,30.36
2018-04-08T11:50:23.565Z,36.07
2018-04-08T11:52:49.975Z,32.31
2018-04-08T11:55:16.341Z,39.99
2018-04-08T11:57:42.714Z,41.66
2018-04-08T12:00:09.125Z,28.28
2018-04-08T12:02:35.513Z,29.31
2018-04-08T12:05:01.878Z,34.29
2018-04-08T12:07:28.381Z,40.81
2018-04-08T12:09:54.961Z,30.98
2018-04-08T12:12:21.478Z,34.81
2018-04-08T12:14:47.845Z,42.11
2018-04-08T12:17:14.237Z,29.34
2018-04-08T12:19:40.657Z,35.40
2018-04-08T12:22:07.061Z,39.43
2018-04-08T12:24:33.501Z,44.72
2018-04-08T12:27:00.910Z,34.20
2018-04-08T12:29:27.341Z,30.99
2018-04-08T12:31:53.764Z,30.10
2018-04-08T12:34:20.151Z,39.78
2018-04-08T12:36:46.754Z,35.36
2018-04-08T12:39:13.148Z,29.75
2018-04-08T12:41:39.506Z,35.86
2018-04-08T12:44:05.874Z,28.76
2018-04-08T12:46:32.249Z,29.72
2018-04-08T12:48:58.799Z,39.71
2018-04-08T12:51:25.170Z,35.03
2018-04-08T12:53:51.581Z,41.20
2018-04-08T12:56:18.010Z,34.95
2018-04-08T12:58:44.396Z,33.98
2018-04-08T13:01:10.775Z,31.97
2018-04-08T13:03:37.144Z,34.50
2018-04-08T13:06:03.554Z,32.84
2018-04-08T13:08:29.953Z,31.79
2018-04-08T13:10:56.301Z,30.36
2018-04-08T13:13:22.702Z,29.38
2018-04-08T13:15:49.109Z,37.40
2018-04-08T13:18:15.514Z,31.75
2018-04-08T13:20:41.954Z,30.14
2018-04-08T13:23:08.330Z,40.21
2018-04-08T13:25:34.721Z,36.55
2018-04-08T13:28:01.081Z,30.32
2018-04-08T13:30:27.448Z,37.65
2018-04-08T13:32:53.884Z,30.27
2018-04-08T13:35:20.234Z,33.64
2018-04-08T13:37:46.852Z,38.01
2018-04-08T13:40:13.262Z,34.29
2018-04-08T13:42:39.637Z,31.40
2018-04-08T13:45:05.985Z,37.38
2018-04-08T13:47:32.426Z,32.47
2018-04-08T13:49:58.813Z,30.36
2018-04-08T13:52:25.990Z,30.45
2018-04-08T13:54:52.409Z,34.66
2018-04-08T13:57:18.780Z,31.07
2018-04-08T13:59:45.163Z,33.58
2018-04-08T14:02:11.565Z,41.29
2018-04-08T14:04:37.901Z,43.35
2018-04-08T14:07:04.269Z,36.02
2018-04-08T14:09:30.646Z,33.10
2018-04-08T14:11:57.008Z,34.42
2018-04-08T14:14:23.380Z,43.58
2018-04-08T14:16:49.749Z,31.37
2018-04-08T14:19:16.116Z,43.33
2018-04-08T14:21:42.470Z,32.66
2018-04-08T14:24:08.858Z,43.30
2018-04-08T14:26:35.228Z,38.14
2018-04-08T14:29:01.600Z,41.84
2018-04-08T14:31:27.976Z,34.24
2018-04-08T14:33:54.365Z,43.21
2018-04-08T14:36:20.788Z,33.36
2018-04-08T14:38:47.155Z,40.06
2018-04-08T14:41:13.526Z,39.84
2018-04-08T14:43:39.912Z,36.81
2018-04-08T14:46:06.315Z,37.56
2018-04-08T14:48:32.742Z,34.77
2018-04-08T14:50:59.193Z,43.42
2018-04-08T14:53:25.590Z,35.13
2018-04-08T14:55:51.990Z,37.89
2018-04-08T14:58:18.406Z,42.72
2018-04-08T15:00:44.870Z,37.16
2018-04-08T15:03:11.275Z,39.97
2018-04-08T15:05:37.702Z,43.28
2018-04-08T15:08:04.125Z,38.55
2018-04-08T15:10:30.583Z,43.40
2018-04-08T15:12:56.984Z,33.99
2018-04-08T15:15:23.413Z,40.75
2018-04-08T15:17:49.969Z,37.41
2018-04-08T15:20:16.384Z,37.08
2018-04-08T15:22:42.819Z,35.27
2018-04-08T15:25:09.307Z,41.46
2018-04-08T15:27:35.703Z,35.33
2018-04-08T15:30:02.134Z,37.52
2018-04-08T15:32:28.566Z,35.54
2018-04-08T15:34:54.938Z,42.78
2018-04-08T15:37:21.290Z,32.68
2018-04-08T15:39:47.679Z,37.34
2018-04-08T15:42:14.082Z,42.51
2018-04-08T15:44:40.478Z,41.43
2018-04-08T15:47:06.879Z,36.62
2018-04-08T15:49:33.241Z,32.81
2018-04-08T15:51:59.664Z,33.44
2018-04-08T15:54:26.098Z,33.57
2018-04-08T15:56:52.466Z,34.50
2018-04-08T15:59:18.862Z,35.71
2018-04-08T16:01:45.302Z,47.24
2018-04-08T16:04:11.650Z,45.47
2018-04-08T16:06:38.017Z,36.14
2018-04-08T16:09:05.258Z,41.62
2018-04-08T16:11:31.622Z,33.24
2018-04-08T16:13:57.965Z,38.70
2018-04-08T16:16:24.513Z,32.34
2018-04-08T16:18:50.873Z,37.04
2018-04-08T16:21:17.249Z,32.63
2018-04-08T16:23:43.609Z,39.31
2018-04-08T16:26:09.981Z,31.50
2018-04-08T16:28:36.381Z,31.45
2018-04-08T16:31:02.788Z,31.25
2018-04-08T16:33:29.151Z,31.01
2018-04-08T16:35:55.574Z,36.31
2018-04-08T16:38:21.938Z,33.87
2018-04-08T16:40:48.285Z,32.77
2018-04-08T16:43:14.704Z,35.30
2018-04-08T16:45:41.085Z,31.95
2018-04-08T16:48:07.492Z,31.14
2018-04-08T16:50:33.906Z,35.81
2018-04-08T16:53:00.298Z,31.58
2018-04-08T16:55:26.706Z,32.01
2018-04-08T16:57:53.083Z,31.91
2018-04-08T17:00:19.597Z,32.06
2018-04-08T17:02:46.061Z,32.11
2018-04-08T17:05:12.503Z,32.44
2018-04-08T17:07:38.874Z,32.36
2018-04-08T17:10:05.301Z,31.82
2018-04-08T17:12:31.668Z,32.13
2018-04-08T17:14:58.045Z,32.46
2018-04-08T17:17:24.465Z,31.83
2018-04-08T17:19:50.854Z,32.15
2018-04-08T17:22:17.209Z,31.16
2018-04-08T17:24:43.642Z,32.73
2018-04-08T17:27:10.078Z,30.20
2018-04-08T17:29:36.485Z,39.72
2018-04-08T17:32:03.057Z,36.65
2018-04-08T17:34:29.470Z,45.95
2018-04-08T17:36:55.878Z,33.27
2018-04-08T17:39:22.246Z,39.44
2018-04-08T17:41:48.658Z,39.19
2018-04-08T17:44:15.070Z,39.46
2018-04-08T17:46:41.479Z,34.17
2018-04-08T17:49:07.933Z,39.96
2018-04-08T17:51:34.355Z,34.85
2018-04-08T17:54:00.749Z,37.78
2018-04-08T17:56:27.119Z,43.58
2018-04-08T17:58:53.499Z,37.09
2018-04-08T18:01:19.897Z,36.18
2018-04-08T18:03:46.273Z,42.82
2018-04-08T18:06:12.646Z,35.61
2018-04-08T18:08:39.001Z,35.38
2018-04-08T18:11:05.366Z,35.93
2018-04-08T18:13:31.741Z,36.13
2018-04-08T18:15:58.126Z,35.55
2018-04-08T18:18:24.490Z,35.46
2018-04-08T18:20:50.875Z,35.19
2018-04-08T18:23:17.213Z,37.67
2018-04-08T18:25:43.582Z,41.09
2018-04-08T18:28:09.953Z,44.46
2018-04-08T18:30:36.304Z,39.07
2018-04-08T18:33:02.653Z,45.24
2018-04-08T18:35:29.041Z,35.66
2018-04-08T18:37:55.433Z,42.92
2018-04-08T18:40:21.853Z,40.67
2018-04-08T18:42:48.242Z,35.71
2018-04-08T18:45:14.650Z,35.81
2018-04-08T18:47:41.008Z,35.77
2018-04-08T18:50:07.366Z,35.78
2018-04-08T18:52:33.749Z,35.51
2018-04-08T18:55:00.181Z,35.56
2018-04-08T18:57:26.557Z,35.42
2018-04-08T18:59:52.917Z,35.54
2018-04-08T19:02:19.309Z,35.92
2018-04-08T19:04:45.666Z,35.58
2018-04-08T19:07:12.066Z,36.20
2018-04-08T19:09:38.425Z,36.50
2018-04-08T19:12:04.798Z,36.50
2018-04-08T19:14:37.424Z,36.43
2018-04-08T19:17:03.845Z,36.75
2018-04-08T19:19:30.222Z,36.48
2018-04-08T19:21:56.601Z,36.82
2018-04-08T19:24:23.016Z,37.19
2018-04-08T19:26:49.410Z,37.17
2018-04-08T19:29:15.784Z,36.71
2018-04-08T19:31:42.166Z,37.15
2018-04-08T19:34:08.542Z,37.11
2018-04-08T19:36:34.894Z,36.45
2018-04-08T19:39:01.265Z,37.67
2018-04-08T19:41:27.634Z,36.63
2018-04-08T19:43:53.998Z,36.74
2018-04-08T19:46:20.354Z,36.75
2018-04-08T19:48:46.729Z,37.53
2018-04-08T19:51:13.086Z,37.12
2018-04-08T19:53:39.453Z,37.81
2018-04-08T19:56:05.806Z,37.83
2018-04-08T19:58:32.322Z,37.62
2018-04-08T20:00:58.778Z,43.05
2018-04-08T20:03:25.134Z,36.57
2018-04-08T20:05:51.517Z,36.32
2018-04-08T20:08:17.903Z,36.62
2018-04-08T20:10:44.485Z,36.84
2018-04-08T20:13:10.894Z,36.82
2018-04-08T20:15:37.250Z,37.07
2018-04-08T20:18:03.734Z,36.55
2018-04-08T20:23:47.058Z,36.84
2018-04-08T20:26:13.409Z,39.24
2018-04-08T20:28:39.993Z,37.02
2018-04-08T20:31:06.371Z,36.31
2018-04-08T20:33:32.756Z,36.35
2018-04-08T20:35:59.121Z,37.01
2018-04-08T20:38:25.484Z,36.81
2018-04-08T20:40:51.877Z,40.71
2018-04-08T20:43:18.237Z,37.83
2018-04-08T20:45:44.601Z,38.41
2018-04-08T20:48:10.948Z,38.92
2018-04-08T20:50:37.306Z,38.86
2018-04-08T20:53:03.711Z,38.95
2018-04-08T20:55:30.073Z,38.78
2018-04-08T20:57:56.430Z,38.03
2018-04-08T21:00:22.789Z,38.58
2018-04-08T21:02:49.153Z,38.31
2018-04-08T21:05:15.505Z,38.20
2018-04-08T21:07:41.863Z,37.25
2018-04-08T21:10:08.229Z,38.76
2018-04-08T21:12:34.606Z,38.67
2018-04-08T21:15:01.096Z,38.49
2018-04-08T21:17:27.553Z,39.39
2018-04-08T21:19:53.940Z,37.94
2018-04-08T21:22:20.317Z,37.56
2018-04-08T21:24:46.714Z,42.84
2018-04-08T21:27:13.117Z,37.70
2018-04-08T21:29:39.520Z,38.15
2018-04-08T21:32:05.880Z,37.47
2018-04-08T21:34:32.294Z,43.83
2018-04-08T21:36:58.694Z,41.40
2018-04-08T21:39:25.045Z,41.26
2018-04-08T21:41:51.414Z,41.77
2018-04-08T21:44:17.826Z,42.58
2018-04-08T21:46:44.210Z,42.91
2018-04-08T21:49:10.593Z,43.68
2018-04-08T21:51:36.989Z,43.92
2018-04-08T21:54:03.406Z,43.27
2018-04-08T21:56:29.813Z,43.55
2018-04-08T21:58:56.190Z,44.19
2018-04-08T22:01:22.525Z,44.28
2018-04-08T22:03:48.906Z,45.45
2018-04-08T22:06:15.270Z,44.22
2018-04-08T22:08:41.633Z,44.04
2018-04-08T22:11:07.981Z,45.24
2018-04-08T22:13:34.353Z,44.67
2018-04-08T22:16:00.756Z,45.13
2018-04-08T22:18:27.130Z,44.96
2018-04-08T22:20:53.550Z,47.77
2018-04-08T22:23:19.925Z,46.11
2018-04-08T22:25:46.295Z,45.24
2018-04-08T22:28:12.647Z,45.23
2018-04-08T22:30:39.039Z,45.20
2018-04-08T22:33:05.510Z,45.58
2018-04-08T22:35:32.178Z,45.66
2018-04-08T22:37:58.722Z,46.32
2018-04-08T22:40:25.271Z,46.78
2018-04-08T22:42:51.626Z,47.07
2018-04-08T22:45:18.184Z,47.43
2018-04-08T22:47:44.525Z,47.42
2018-04-08T22:50:10.919Z,46.71
2018-04-08T22:52:37.393Z,46.06
2018-04-08T22:55:03.791Z,46.80
2018-04-08T22:57:30.178Z,46.76
2018-04-08T22:59:56.538Z,47.22
2018-04-08T23:02:22.949Z,48.00
2018-04-08T23:04:49.299Z,48.45
2018-04-08T23:07:15.657Z,47.63
2018-04-08T23:09:42.059Z,47.03
2018-04-08T23:12:08.445Z,46.95
2018-04-08T23:14:34.789Z,46.86
2018-04-08T23:17:01.157Z,46.64
2018-04-08T23:19:27.524Z,46.63
2018-04-08T23:21:53.914Z,46.71
2018-04-08T23:24:20.252Z,47.02
2018-04-08T23:26:46.649Z,46.91
2018-04-08T23:29:12.993Z,46.75
2018-04-08T23:31:39.341Z,46.81
2018-04-08T23:34:05.710Z,46.79
2018-04-08T23:36:32.082Z,46.96
2018-04-08T23:38:58.487Z,46.96
2018-04-08T23:41:24.905Z,47.14
2018-04-08T23:43:51.313Z,47.04
2018-04-08T23:46:17.672Z,48.08
2018-04-08T23:48:44.077Z,47.78
2018-04-08T23:51:10.470Z,47.44
2018-04-08T23:53:36.838Z,48.11
2018-04-08T23:56:03.276Z,47.74
2018-04-08T23:58:29.658Z,48.59
